x

Western Caribbean - 195 Nm Wsw Of Negril Jamiaca (42057) Wave Buoy

7:50 - Sat 30th Apr 2016 All times are UTC.

  • Sig Wave height 3.0ft
  • Swell Direction
  • Peak Period 5s
  • Average Period 4s
  • Wind
    11mph, 16mph gusts
  • Sea Temp 84°f
  • Luft Temp 84°f
  • Sea Pressure 1008.6mb

More Historic Weather Station data

Upgrade to MSW Pro to gain access to the past 30 days of data for over 8000 Wavebouys and Weather Stations around the globe.

Join Pro

Comparision Forecast

View Surf forecast
   
Sa 04/30 7:50 3ft 5s 4s 11 16 mph 1008.6mb 84f 84f
6:50 3ft 5s 4s 13 16 mph 1009mb 84f 84f
5:50 3ft 5s 4s 13 16 mph 1009.2mb 84f 84f
4:50 3ft 6s 4s 16 18 mph 1009.9mb 84f 83f
3:50 3ft 5s 4s 16 18 mph 1010.5mb 84f 83f
2:50 3ft 5s 4s 16 18 mph 1010.2mb 84f 83f
12:50 3ft 5s 4s 16 18 mph 1009.9mb 84f 83f
11:50 3ft 5s 4s 16 18 mph 1009.6mb 84f 83f
10:50 3ft 5s 4s 16 18 mph 1009.1mb 83f 83f
9:50 3ft 5s 4s 16 18 mph 1008.6mb 83f 83f
8:50 3ft 5s 4s 16 18 mph 1008.4mb 83f 83f
7:50 3ft 5s 4s 16 18 mph 1008.8mb 84f 83f
6:50 3ft 6s 4s 13 16 mph 1009.3mb 84f 83f
5:50 3ft 4s 4s 18 27 mph 1009.7mb 84f 80f
4:50 2.5ft 5s 4s 18 20 mph 1010.2mb 84f 83f
3:50 3ft 5s 4s 16 20 mph 1010.7mb 84f 82f
2:50 2.5ft 5s 4s 16 18 mph 1010.7mb 84f 83f
1:50 2.5ft 5s 4s 16 18 mph 1010.5mb 84f 83f
12:50 2.5ft 5s 4s 13 16 mph 1009.9mb 84f 83f
Fr 04/29 11:50 2.5ft 5s 4s 13 16 mph 1009.7mb 84f 83f
10:50 2.5ft 5s 4s 13 16 mph 1009.4mb 84f 83f
9:50 2.5ft 7s 4s 9 11 mph 1009.5mb 84f 81f
8:50 2.5ft 7s 4s 18 25 mph 1009.6mb 84f 79f
7:50 2.5ft 4s 4s 11 13 mph 1010.2mb 84f 82f
6:50 2.5ft 4s 4s 13 16 mph 1010.4mb 84f 82f
5:50 2.5ft 6s 4s 16 20 mph 1011.2mb 84f 82f
4:50 2.5ft 4s 4s 11
mph
1011.9mb 84f 82f
3:50 2.5ft 5s 4s 13 16 mph 1012mb 84f 83f
2:50 2.5ft 4s 4s 13 18 mph 1012.2mb 84f 83f
1:50 2.5ft 6s 4s 11 13 mph 1012.2mb 84f 83f
12:50 2.5ft 5s 4s 11 13 mph 1011.8mb 84f 83f
11:50 2.5ft 4s 4s 9 11 mph 1011mb 84f 81f
10:50 2.5ft 4s 4s 11 13 mph 1010.6mb 83f 83f
9:50 2.5ft 5s 4s 13
mph
1010.5mb 84f 83f
8:50 2.5ft 5s 4s 11 13 mph 1010.4mb 84f 83f
7:50 2.5ft 7s 4s 11 16 mph 1010.7mb 84f 82f
6:50 2.5ft 5s 4s 13 16 mph 1010.9mb 84f 83f
5:50 2.5ft 5s 4s 13
mph
1011.4mb 84f 83f
4:50 2.5ft 7s 4s 13 18 mph 1011.6mb 84f 83f
3:50 2.5ft 5s 4s 16
mph
1012mb 84f 83f
2:50 2ft 6s 4s 13 16 mph 1012.1mb 84f 83f
1:50 2.5ft 5s 4s 13 16 mph 1011.7mb 84f 83f
12:50 2.5ft 4s 4s 11
mph
1011.3mb 84f 83f
Do 04/28 11:50 2.5ft 5s 4s 11 16 mph 1010.8mb 84f 83f
10:50 2.5ft 5s 4s 11 13 mph 1010.2mb 85f 84f
9:50 2.5ft 5s 4s 11 13 mph 1010mb 84f 84f
8:50 2.5ft 5s 4s 11 13 mph 1010.2mb 84f 83f
7:50 2.5ft 5s 4s 11 13 mph 1010.8mb 84f 83f
6:50 2.5ft 5s 4s 13 16 mph 1011.3mb 84f 84f
5:50 2.5ft 5s 4s 13 16 mph 1012mb 84f 83f
4:50 2.5ft 6s 4s 11 13 mph 1012.3mb 84f 83f
3:50 2.5ft 6s 4s 13 16 mph 1012.4mb 84f 83f
2:50 2.5ft 6s 4s 13
mph
1012.4mb 84f 83f
1:50 2.5ft 5s 4s 11 13 mph 1012.4mb 84f 83f
12:50 2.5ft 5s 4s 11 13 mph 1012mb 84f 83f
11:50 2.5ft 3s 4s 11 16 mph 1011.3mb 84f 83f
10:50 2.5ft 5s 4s 11 13 mph 1010.7mb 84f 83f
9:50 2.5ft 4s 4s 13
mph
1010.2mb 84f 83f
8:50 2.5ft 5s 4s 11 13 mph 1009.8mb 84f 83f
7:50 2.5ft 4s 4s 11 13 mph 1009.6mb 84f 83f
6:50 2.5ft 5s 4s 11 13 mph 1009.8mb 84f 83f
5:50 2.5ft 5s 4s 11 13 mph 1010.4mb 84f 83f
4:50 2.5ft 5s 4s 13
mph
1010.8mb 84f 83f
3:50 2.5ft 5s 4s 13 16 mph 1011.1mb 84f 83f
2:50 2.5ft 5s 4s 13 16 mph 1010.5mb 84f 83f
1:50 2.5ft 5s 4s 11 13 mph 1010mb 84f 83f
12:50 2.5ft 5s 4s 11 16 mph 1009.5mb 84f 83f
Mi 04/27 11:50 2.5ft 7s 5s 11 13 mph 1008.9mb 84f 83f
10:50 2.5ft 5s 4s 11
mph
1008.2mb 84f 83f
9:50 2.5ft 5s 4s 11 13 mph 1007.9mb 84f 83f
8:50 2.5ft 5s 4s 11 13 mph 1008.6mb 85f 83f
7:50 2.5ft 5s 4s 11 13 mph 1009.1mb 85f 83f
6:50 2.5ft 5s 4s 11 13 mph 1009.7mb 84f 83f
5:50 3ft 6s 4s 11 16 mph 1010.2mb 84f 83f
4:50 3ft 6s 4s 11 13 mph 1010.7mb 84f 83f
3:50 3ft 5s 4s 11 16 mph 1010.6mb 84f 83f
2:50 3ft 6s 4s 13
mph
1010.6mb 84f 83f
1:50 2.5ft 6s 4s 13 16 mph 1010.4mb 84f 83f
12:50 3ft 6s 4s 13
mph
1010mb 84f 83f
11:50 2.5ft 6s 4s 13 16 mph 1009mb 84f 82f
10:50 3ft 7s 4s 13 16 mph 1008.7mb 84f 82f
9:50 2.5ft 7s 4s 11 13 mph 1008.5mb 83f 82f
8:50 2.5ft 5s 4s 11 13 mph 1008.3mb 83f 82f
7:50 2.5ft 5s 4s 13 16 mph 1008.8mb 83f 82f
6:50 2.5ft 5s 4s 9 11 mph 1009.6mb 83f 82f
5:50 2ft 5s 4s 11 16 mph 1009.8mb 83f 83f
4:50 2.5ft 6s 4s 11 13 mph 1010.1mb 83f 83f
3:50 2.5ft 5s 4s 13
mph
1010.5mb 84f 83f
2:50 2.5ft 7s 5s 11
mph
1010.1mb 84f 83f
1:50 2.5ft 5s 5s 9 11 mph 1009.7mb 84f 83f
12:50 2.5ft 5s 5s 9 11 mph 1008.9mb 84f 83f
Di 04/26 11:50 2.5ft 7s 5s 7 9 mph 1008.8mb 85f 83f
10:50 2.5ft 6s 5s 7 9 mph 1008.4mb 85f 83f
9:50 2.5ft 7s 5s 7
mph
1008.5mb 85f 84f